Time;durP1;ratioP1;P1;durP2;ratioP2;P2;SDS_P1;SDS_P2;PMS_P1;PMS_P2;Temp;Humidity;BMP_temperature;BMP_pressure;BME280_temperature;BME280_humidity;BME280_pressure;Samples;Min_cycle;Max_cycle;Signal;HPM_P1;HPM_P2
2023/03/13 00:01:48;;;;;;;32.90;5.40;;;9.20;99.90;;;;;;5112173;28;20130;-58
2023/03/13 00:04:19;;;;;;;32.70;5.75;;;9.30;99.90;;;;;;5112481;28;20036;-58
2023/03/13 00:06:48;;;;;;;27.33;4.78;;;9.20;99.90;;;;;;5110815;28;20054;-58
2023/03/13 00:09:16;;;;;;;35.83;5.18;;;9.20;99.90;;;;;;5111617;28;20175;-59
2023/03/13 00:11:46;;;;;;;32.63;5.70;;;9.30;99.90;;;;;;5112261;28;20039;-58
2023/03/13 00:14:14;;;;;;;24.58;5.90;;;9.30;99.90;;;;;;5112021;28;20054;-58
2023/03/13 00:16:44;;;;;;;27.75;6.03;;;9.30;99.90;;;;;;5112461;28;20039;-58
2023/03/13 00:19:10;;;;;;;28.23;6.15;;;9.20;99.90;;;;;;5110038;28;20055;-59
2023/03/13 00:21:37;;;;;;;39.40;7.63;;;9.10;99.90;;;;;;5112526;28;20040;-59
2023/03/13 00:24:08;;;;;;;33.05;6.25;;;9.20;99.90;;;;;;5112117;28;20039;-58
2023/03/13 00:26:38;;;;;;;37.13;6.70;;;9.10;99.90;;;;;;5112027;28;20052;-58
2023/03/13 00:29:06;;;;;;;;;;;9.10;99.90;;;;;;5112513;28;20488;-59
2023/03/13 00:31:33;;;;;;;31.92;5.57;;;9.10;99.90;;;;;;5127836;28;19916;-58
2023/03/13 00:34:02;;;;;;;34.78;6.35;;;9.10;99.90;;;;;;5112016;28;20524;-59
2023/03/13 00:36:33;;;;;;;35.70;7.72;;;9.10;99.90;;;;;;5112728;28;20043;-58
2023/03/13 00:39:04;;;;;;;37.67;6.88;;;9.00;99.90;;;;;;5112104;28;20119;-58
2023/03/13 00:41:35;;;;;;;35.65;6.95;;;9.10;99.90;;;;;;5112089;28;20075;-58
2023/03/13 00:44:07;;;;;;;29.35;5.43;;;9.00;99.90;;;;;;5112106;28;20474;-59
2023/03/13 00:46:34;;;;;;;31.30;7.60;;;9.00;99.90;;;;;;5110318;28;20055;-58
2023/03/13 00:49:01;;;;;;;32.30;7.13;;;9.10;99.90;;;;;;5112177;28;20047;-58
2023/03/13 00:51:31;;;;;;;30.95;7.18;;;9.10;99.90;;;;;;5111914;28;20118;-58
2023/03/13 00:53:59;;;;;;;29.92;6.38;;;9.20;99.90;;;;;;5111781;28;20044;-59
2023/03/13 00:56:27;;;;;;;34.60;7.80;;;9.00;99.90;;;;;;5112169;28;20615;-59
2023/03/13 00:58:56;;;;;;;40.17;7.05;;;9.00;99.90;;;;;;5112006;28;20086;-59
2023/03/13 01:01:26;;;;;;;29.17;6.10;;;9.10;99.90;;;;;;5111792;28;20115;-58
2023/03/13 01:03:56;;;;;;;33.90;7.13;;;9.00;99.90;;;;;;5111895;28;20035;-58
2023/03/13 01:06:26;;;;;;;33.67;6.55;;;9.00;99.90;;;;;;5111866;28;20492;-58
2023/03/13 01:08:54;;;;;;;29.85;5.78;;;8.90;99.90;;;;;;5115711;28;20031;-58
2023/03/13 01:11:24;;;;;;;30.98;6.45;;;9.00;99.90;;;;;;5115472;28;20485;-58
2023/03/13 01:13:57;;;;;;;32.25;5.68;;;9.10;99.90;;;;;;5115478;28;20040;-59
2023/03/13 01:16:28;;;;;;;33.22;7.05;;;8.90;99.90;;;;;;5115713;28;20052;-59
2023/03/13 01:19:00;;;;;;;34.70;6.53;;;9.00;99.90;;;;;;5115580;28;20079;-59
2023/03/13 01:21:27;;;;;;;32.78;6.43;;;9.10;99.90;;;;;;5113737;28;20491;-58
2023/03/13 01:23:54;;;;;;;34.63;6.80;;;9.00;99.90;;;;;;5115325;27;20036;-59
2023/03/13 01:26:23;;;;;;;31.15;6.65;;;9.10;99.90;;;;;;5115050;28;20055;-58
2023/03/13 01:28:50;;;;;;;40.13;7.10;;;9.10;99.90;;;;;;5115554;28;20039;-58
2023/03/13 01:31:25;;;;;;;30.95;5.75;;;9.10;99.90;;;;;;5114928;28;20126;-59
2023/03/13 01:33:58;;;;;;;24.65;6.43;;;9.00;99.90;;;;;;5115273;28;20036;-59
2023/03/13 01:36:26;;;;;;;32.33;7.00;;;9.20;99.90;;;;;;5115003;28;20420;-59
2023/03/13 01:38:55;;;;;;;31.80;5.95;;;9.00;99.90;;;;;;5114972;28;20046;-58
2023/03/13 01:41:24;;;;;;;29.88;7.57;;;9.20;99.90;;;;;;5114705;28;20044;-58
2023/03/13 01:43:51;;;;;;;34.72;7.18;;;9.00;99.90;;;;;;5113528;28;20130;-58
2023/03/13 01:46:20;;;;;;;30.45;6.22;;;9.00;99.90;;;;;;5114758;27;20115;-59
2023/03/13 01:48:55;;;;;;;26.63;6.35;;;9.20;99.90;;;;;;5114629;28;20074;-58
2023/03/13 01:51:37;;;;;;;26.60;6.70;;;9.10;99.90;;;;;;5114817;28;20043;-59
2023/03/13 01:54:24;;;;;;;31.40;6.40;;;9.10;99.90;;;;;;5115007;28;20047;-58
2023/03/13 01:56:58;;;;;;;26.90;6.18;;;9.10;99.90;;;;;;5114951;28;20488;-58
2023/03/13 01:59:51;;;;;;;30.27;5.88;;;9.00;99.90;;;;;;5113050;28;20489;-59
2023/03/13 02:02:17;;;;;;;28.73;5.78;;;9.10;99.90;;;;;;5015334;28;20108;-59
2023/03/13 02:04:56;;;;;;;32.63;6.72;;;9.10;99.90;;;;;;5032095;28;20060;-58
2023/03/13 02:07:30;;;;;;;38.65;7.38;;;9.10;99.90;;;;;;5031796;28;20124;-59
2023/03/13 02:09:57;;;;;;;29.50;6.90;;;9.00;99.90;;;;;;5032000;28;20045;-59
2023/03/13 02:12:32;;;;;;;36.28;6.47;;;9.00;99.90;;;;;;5031094;28;20379;-59
2023/03/13 02:15:04;;;;;;;26.63;5.53;;;9.00;99.90;;;;;;5031665;28;20084;-58
2023/03/13 02:17:33;;;;;;;27.48;6.18;;;9.00;99.90;;;;;;5031292;28;20087;-59
2023/03/13 02:19:59;;;;;;;34.30;6.68;;;9.10;99.90;;;;;;5031682;28;20084;-59
2023/03/13 02:22:40;;;;;;;24.33;6.45;;;8.90;99.90;;;;;;5031548;28;20042;-59
2023/03/13 02:25:10;;;;;;;33.88;7.43;;;8.90;99.90;;;;;;5031279;28;20071;-59
2023/03/13 02:27:38;;;;;;;29.17;6.25;;;8.90;99.90;;;;;;5031372;28;20480;-59
2023/03/13 02:30:07;;;;;;;32.55;7.43;;;9.00;99.90;;;;;;5031576;28;20048;-59
2023/03/13 02:32:35;;;;;;;33.80;6.43;;;8.90;99.90;;;;;;5013857;28;20084;-59
2023/03/13 02:35:09;;;;;;;30.02;6.78;;;8.80;99.90;;;;;;5030606;28;20054;-59
2023/03/13 02:37:37;;;;;;;29.55;6.80;;;8.80;99.90;;;;;;5031559;28;20087;-59
2023/03/13 02:40:10;;;;;;;21.98;6.13;;;9.00;99.90;;;;;;5102196;28;20096;-58
2023/03/13 02:42:41;;;;;;;21.55;5.75;;;8.90;99.90;;;;;;5113811;28;20035;-59
2023/03/13 02:45:09;;;;;;;22.50;6.10;;;9.00;99.90;;;;;;5113671;28;20046;-59
2023/03/13 02:47:36;;;;;;;23.00;5.72;;;9.00;99.90;;;;;;5113881;28;20031;-59
2023/03/13 02:50:03;;;;;;;21.80;5.20;;;8.90;99.90;;;;;;5113723;28;20099;-59
2023/03/13 02:52:37;;;;;;;17.40;5.68;;;9.10;99.90;;;;;;5113585;28;20073;-59
2023/03/13 02:55:16;;;;;;;21.45;4.78;;;9.00;99.90;;;;;;5113612;28;20039;-59
2023/03/13 02:57:44;;;;;;;19.23;4.80;;;9.20;99.90;;;;;;5113561;28;20042;-58
2023/03/13 03:00:12;;;;;;;15.77;5.30;;;9.10;99.90;;;;;;5113552;27;20040;-59
2023/03/13 03:02:40;;;;;;;11.93;4.38;;;9.20;99.90;;;;;;5113955;28;20090;-59
2023/03/13 03:05:09;;;;;;;17.42;4.50;;;9.20;99.90;;;;;;5113551;28;20028;-59
2023/03/13 03:07:36;;;;;;;9.63;3.92;;;9.10;99.90;;;;;;5113501;28;20043;-58
2023/03/13 03:10:04;;;;;;;12.98;4.47;;;9.30;99.90;;;;;;5113594;28;20494;-58
2023/03/13 03:12:32;;;;;;;12.52;4.32;;;9.00;99.90;;;;;;5112977;28;20047;-58
2023/03/13 03:15:00;;;;;;;11.48;4.32;;;9.00;99.90;;;;;;5113408;28;20035;-58
2023/03/13 03:17:28;;;;;;;12.93;4.33;;;9.30;99.90;;;;;;5113554;28;20088;-58
2023/03/13 03:19:55;;;;;;;13.82;4.25;;;9.30;99.90;;;;;;5113237;28;20282;-58
2023/03/13 03:22:22;;;;;;;12.85;3.88;;;9.10;99.90;;;;;;5113182;28;20038;-58
2023/03/13 03:24:50;;;;;;;12.65;4.65;;;9.30;99.90;;;;;;5113054;28;20039;-58
2023/03/13 03:27:17;;;;;;;12.57;4.07;;;9.40;99.90;;;;;;5113375;28;20058;-58
2023/03/13 03:29:45;;;;;;;9.90;4.18;;;9.30;99.90;;;;;;5112558;28;20122;-58
2023/03/13 03:32:12;;;;;;;6.47;3.60;;;9.20;99.90;;;;;;5113303;28;20497;-58
2023/03/13 03:34:38;;;;;;;13.63;3.88;;;9.30;99.90;;;;;;5112965;28;20547;-58
2023/03/13 03:37:06;;;;;;;8.07;3.72;;;9.20;99.90;;;;;;5112711;28;20097;-58
2023/03/13 03:39:33;;;;;;;13.05;3.92;;;9.40;99.90;;;;;;5113053;28;20464;-57
2023/03/13 03:42:00;;;;;;;9.73;3.47;;;9.50;99.90;;;;;;5111489;28;20966;-57
2023/03/13 03:44:27;;;;;;;9.15;3.72;;;9.50;99.90;;;;;;5113396;28;20500;-57
2023/03/13 03:46:54;;;;;;;8.65;3.22;;;9.70;99.90;;;;;;5111153;28;20060;-57
2023/03/13 03:49:23;;;;;;;10.20;3.55;;;9.40;99.90;;;;;;5113202;28;20081;-58
2023/03/13 03:51:48;;;;;;;8.40;3.03;;;9.70;99.90;;;;;;5112967;28;20050;-57
2023/03/13 03:54:15;;;;;;;6.07;3.20;;;9.60;99.90;;;;;;5113140;28;20043;-58
2023/03/13 03:56:43;;;;;;;4.97;2.70;;;9.50;99.90;;;;;;5112884;28;20039;-58
2023/03/13 03:59:10;;;;;;;5.93;2.55;;;9.50;99.90;;;;;;5112766;28;20039;-58
2023/03/13 04:01:37;;;;;;;7.53;2.50;;;9.70;99.90;;;;;;5112857;28;20039;-58
2023/03/13 04:04:04;;;;;;;4.75;2.42;;;9.60;99.90;;;;;;5112845;28;20841;-58
2023/03/13 04:06:31;;;;;;;4.07;2.63;;;9.90;99.90;;;;;;5112400;28;20036;-58
2023/03/13 04:08:58;;;;;;;10.65;2.88;;;10.00;99.90;;;;;;5111034;28;20055;-58
2023/03/13 04:11:25;;;;;;;4.15;2.28;;;9.90;99.90;;;;;;5112953;28;20107;-58
2023/03/13 04:13:52;;;;;;;5.93;2.70;;;10.00;99.90;;;;;;5112625;28;20502;-58
2023/03/13 04:16:20;;;;;;;4.10;2.83;;;10.10;99.90;;;;;;5112207;28;20043;-58
2023/03/13 04:18:48;;;;;;;3.85;2.35;;;9.90;99.90;;;;;;5112133;28;20040;-58
2023/03/13 04:21:15;;;;;;;7.15;3.10;;;9.90;99.90;;;;;;5112306;28;20040;-58
2023/03/13 04:23:42;;;;;;;4.22;2.70;;;10.20;99.90;;;;;;5112668;28;20074;-57
2023/03/13 04:26:08;;;;;;;4.35;3.00;;;10.10;99.90;;;;;;5111847;28;20047;-58
2023/03/13 04:28:36;;;;;;;4.63;3.90;;;9.90;99.90;;;;;;5112342;28;20048;-58
2023/03/13 04:31:04;;;;;;;6.38;4.60;;;10.10;99.90;;;;;;5112422;28;20542;-58
2023/03/13 04:33:32;;;;;;;6.28;4.75;;;10.10;99.90;;;;;;5112173;28;20042;-58
2023/03/13 04:35:58;;;;;;;9.10;6.03;;;10.40;99.90;;;;;;5112230;28;20035;-58
2023/03/13 04:38:25;;;;;;;9.52;5.20;;;10.00;99.90;;;;;;5110703;28;20047;-58
2023/03/13 04:40:53;;;;;;;7.15;5.70;;;10.40;99.90;;;;;;5112932;28;20043;-58
2023/03/13 04:43:21;;;;;;;8.55;5.90;;;10.30;99.90;;;;;;5116219;28;20042;-58
2023/03/13 04:45:53;;;;;;;8.73;6.22;;;10.70;99.90;;;;;;5116277;28;20433;-58
2023/03/13 04:48:20;;;;;;;12.13;6.63;;;10.70;99.90;;;;;;5116236;28;20043;-58
2023/03/13 04:50:48;;;;;;;10.60;7.05;;;10.50;99.90;;;;;;5116120;28;20035;-58
2023/03/13 04:53:15;;;;;;;12.20;7.78;;;10.70;99.90;;;;;;5116172;28;20043;-58
2023/03/13 04:55:44;;;;;;;13.23;7.80;;;10.60;99.90;;;;;;5115930;28;20504;-58
2023/03/13 04:58:11;;;;;;;11.07;7.43;;;10.40;99.90;;;;;;5116147;27;20096;-58
2023/03/13 05:00:41;;;;;;;13.48;7.90;;;10.60;99.90;;;;;;5113848;28;20127;-58
2023/03/13 05:03:09;;;;;;;11.70;6.65;;;10.50;99.90;;;;;;5116243;28;20474;-58
2023/03/13 05:05:36;;;;;;;11.27;7.38;;;10.40;99.90;;;;;;5115836;28;20105;-58
2023/03/13 05:08:07;;;;;;;10.75;6.75;;;10.50;99.90;;;;;;5115820;28;20065;-58
2023/03/13 05:10:34;;;;;;;13.00;7.60;;;10.50;99.90;;;;;;5115822;28;20430;-58
2023/03/13 05:13:01;;;;;;;10.85;6.55;;;10.90;99.90;;;;;;5115949;28;20048;-58
2023/03/13 05:15:28;;;;;;;11.07;6.63;;;10.80;99.90;;;;;;5115829;28;20549;-58
2023/03/13 05:17:55;;;;;;;13.80;6.80;;;10.70;99.90;;;;;;5115965;28;20371;-58
2023/03/13 05:20:21;;;;;;;17.70;7.47;;;10.80;99.90;;;;;;5115865;28;20567;-58
2023/03/13 05:22:49;;;;;;;11.45;6.35;;;10.90;99.90;;;;;;5115649;28;20035;-58
2023/03/13 05:25:16;;;;;;;13.40;6.75;;;11.20;99.90;;;;;;5115696;28;20043;-57
2023/03/13 05:27:44;;;;;;;15.50;6.03;;;11.10;99.90;;;;;;5115412;28;20092;-58
2023/03/13 05:30:10;;;;;;;14.93;5.82;;;11.40;99.90;;;;;;5115695;28;20054;-58
2023/03/13 05:32:36;;;;;;;12.38;5.38;;;11.30;99.90;;;;;;5115637;28;20617;-58
2023/03/13 05:35:03;;;;;;;16.73;5.05;;;11.30;99.90;;;;;;5115264;28;20051;-58
2023/03/13 05:37:31;;;;;;;7.72;4.28;;;11.40;99.90;;;;;;5115055;28;20063;-58
2023/03/13 05:39:59;;;;;;;10.23;4.67;;;11.20;99.90;;;;;;5115345;28;20595;-57
2023/03/13 05:42:26;;;;;;;11.25;4.57;;;11.50;99.90;;;;;;5103386;28;20061;-57
2023/03/13 05:44:54;;;;;;;13.27;4.60;;;11.30;99.90;;;;;;5115305;28;20042;-57
2023/03/13 05:47:21;;;;;;;11.60;5.10;;;11.70;99.90;;;;;;5103755;28;20039;-58
2023/03/13 05:49:47;;;;;;;15.20;4.93;;;11.70;99.90;;;;;;5094635;28;20040;-58
2023/03/13 05:52:14;;;;;;;12.07;4.32;;;11.30;99.90;;;;;;5094284;28;20044;-59
2023/03/13 05:54:41;;;;;;;13.43;4.95;;;11.80;99.90;;;;;;5094272;28;20044;-59
2023/03/13 05:57:08;;;;;;;13.85;4.65;;;11.40;99.90;;;;;;5094728;28;20048;-58
2023/03/13 05:59:34;;;;;;;9.85;4.35;;;11.40;99.90;;;;;;5092464;28;20056;-58
2023/03/13 06:02:01;;;;;;;9.27;4.10;;;11.70;99.90;;;;;;5094521;28;20059;-59
2023/03/13 06:04:27;;;;;;;11.75;4.53;;;11.30;99.90;;;;;;5094645;28;20491;-59
2023/03/13 06:06:54;;;;;;;20.50;5.43;;;11.80;99.90;;;;;;5094983;28;20040;-59
2023/03/13 06:09:20;;;;;;;12.25;4.40;;;11.70;99.90;;;;;;5094206;28;20093;-59
2023/03/13 06:11:48;;;;;;;16.52;4.47;;;11.80;99.90;;;;;;5094434;28;20115;-59
2023/03/13 06:14:15;;;;;;;10.13;3.83;;;11.70;99.90;;;;;;5108123;28;20116;-59
2023/03/13 06:16:41;;;;;;;16.08;4.43;;;11.50;99.90;;;;;;5114673;28;20048;-59
2023/03/13 06:19:07;;;;;;;12.02;4.57;;;11.60;99.90;;;;;;5114260;28;20044;-59
2023/03/13 06:21:33;;;;;;;16.77;5.05;;;11.30;99.90;;;;;;5114629;27;20089;-59
2023/03/13 06:24:00;;;;;;;12.63;4.38;;;11.70;99.90;;;;;;5114377;28;20032;-58
2023/03/13 06:26:26;;;;;;;14.27;4.63;;;11.60;99.90;;;;;;5114156;28;20105;-59
2023/03/13 06:28:54;;;;;;;13.27;4.78;;;11.50;99.90;;;;;;5114233;28;20116;-59
2023/03/13 06:31:20;;;;;;;14.70;5.20;;;11.40;99.90;;;;;;5114047;28;20043;-58
2023/03/13 06:33:46;;;;;;;13.95;4.72;;;11.30;99.90;;;;;;5114086;28;20050;-59
2023/03/13 06:36:13;;;;;;;13.35;5.00;;;11.30;99.90;;;;;;5113943;28;20366;-59
2023/03/13 06:38:40;;;;;;;17.45;6.00;;;11.60;99.90;;;;;;5113925;28;20055;-59
2023/03/13 06:41:07;;;;;;;15.90;5.13;;;11.70;99.90;;;;;;5114484;28;20067;-59
2023/03/13 06:43:33;;;;;;;19.33;6.25;;;11.50;99.90;;;;;;5114060;28;20449;-59
2023/03/13 06:46:04;;;;;;;10.45;5.45;;;11.40;99.90;;;;;;5114069;28;20137;-59
2023/03/13 06:48:30;;;;;;;16.42;5.70;;;11.60;99.90;;;;;;5113857;28;20036;-59
2023/03/13 06:50:57;;;;;;;13.48;6.20;;;11.60;99.90;;;;;;5114327;28;20457;-59
2023/03/13 06:53:25;;;;;;;13.77;5.72;;;11.80;99.90;;;;;;5113598;27;20477;-59
2023/03/13 06:55:51;;;;;;;11.70;5.68;;;11.60;99.90;;;;;;5113932;28;20043;-59
2023/03/13 06:58:18;;;;;;;15.25;5.68;;;11.90;99.90;;;;;;5113540;28;20496;-59
2023/03/13 07:00:45;;;;;;;19.80;5.45;;;11.80;99.90;;;;;;5113131;28;20043;-59
2023/03/13 07:03:13;;;;;;;14.13;5.20;;;11.80;99.90;;;;;;5113979;28;20036;-59
2023/03/13 07:05:39;;;;;;;14.52;5.00;;;11.60;99.90;;;;;;5112542;28;20114;-59
2023/03/13 07:08:06;;;;;;;16.65;4.93;;;12.00;99.90;;;;;;5113654;28;20036;-59
2023/03/13 07:10:33;;;;;;;15.05;5.50;;;12.00;99.90;;;;;;5113419;28;20035;-59
2023/03/13 07:12:59;;;;;;;11.57;4.47;;;11.90;99.90;;;;;;5113516;28;20489;-59
2023/03/13 07:15:26;;;;;;;13.07;4.72;;;12.00;99.90;;;;;;5113349;28;20035;-59
2023/03/13 07:17:55;;;;;;;17.02;4.80;;;11.90;99.90;;;;;;5113200;28;20039;-59
2023/03/13 07:20:23;;;;;;;10.98;4.57;;;12.00;99.90;;;;;;5113231;28;20489;-59
2023/03/13 07:22:55;;;;;;;12.63;4.47;;;12.00;99.90;;;;;;5113185;28;20036;-59
2023/03/13 07:25:23;;;;;;;18.00;4.72;;;12.00;99.90;;;;;;5113354;28;20482;-59
2023/03/13 07:27:52;;;;;;;11.65;3.75;;;12.00;99.90;;;;;;5111698;28;20055;-59
2023/03/13 07:30:20;;;;;;;14.80;4.30;;;12.00;99.90;;;;;;5112907;28;20490;-59
2023/03/13 07:32:49;;;;;;;12.82;4.32;;;11.90;99.90;;;;;;5113000;28;20035;-59
2023/03/13 07:35:16;;;;;;;11.50;4.40;;;12.00;99.90;;;;;;5113241;28;20035;-59
2023/03/13 07:37:44;;;;;;;14.57;4.70;;;12.10;99.90;;;;;;5110965;28;20101;-59
2023/03/13 07:40:13;;;;;;;17.50;4.82;;;11.70;99.90;;;;;;5112736;28;20069;-59
2023/03/13 07:42:41;;;;;;;16.35;3.97;;;12.00;99.90;;;;;;5112969;28;20077;-60
2023/03/13 07:45:09;;;;;;;13.10;4.40;;;12.00;99.90;;;;;;5112525;28;20032;-60
2023/03/13 07:47:38;;;;;;;14.23;4.57;;;11.80;99.90;;;;;;5112651;28;20047;-61
2023/03/13 07:50:05;;;;;;;11.50;4.17;;;11.80;99.90;;;;;;5112420;28;20073;-61
2023/03/13 07:52:31;;;;;;;13.40;4.03;;;11.70;99.90;;;;;;5112520;28;20273;-60
2023/03/13 07:54:57;;;;;;;13.63;3.90;;;11.90;99.90;;;;;;5112508;28;20474;-60
2023/03/13 07:57:22;;;;;;;10.50;4.13;;;11.60;99.90;;;;;;5112367;28;20047;-60
2023/03/13 07:59:48;;;;;;;13.20;3.47;;;11.80;99.90;;;;;;5112303;28;20039;-60
2023/03/13 08:02:15;;;;;;;14.02;3.90;;;11.60;99.90;;;;;;5112493;28;20466;-60
2023/03/13 08:04:41;;;;;;;14.30;4.30;;;12.00;99.90;;;;;;5112534;28;20039;-61
2023/03/13 08:07:11;;;;;;;11.95;3.33;;;11.90;99.90;;;;;;5112523;28;20098;-60
2023/03/13 08:09:37;;;;;;;6.45;3.47;;;11.70;99.90;;;;;;5112325;28;20118;-60
2023/03/13 08:12:03;;;;;;;8.68;3.13;;;11.90;99.90;;;;;;5110594;28;20549;-60
2023/03/13 08:14:28;;;;;;;9.60;3.35;;;11.80;99.90;;;;;;5112219;28;20096;-60
2023/03/13 08:16:54;;;;;;;9.82;3.05;;;12.00;99.90;;;;;;5111806;28;20036;-61
2023/03/13 08:19:54;;;;;;;9.82;3.03;;;11.80;99.90;;;;;;5093012;28;20055;-60
2023/03/13 08:22:20;;;;;;;11.52;3.05;;;12.10;99.90;;;;;;5112186;28;20097;-61
2023/03/13 08:24:46;;;;;;;10.48;3.60;;;12.10;99.90;;;;;;5112015;28;20067;-60
2023/03/13 08:27:12;;;;;;;8.27;2.17;;;12.00;99.90;;;;;;5112030;28;20048;-60
2023/03/13 08:29:38;;;;;;;8.38;2.70;;;12.00;99.90;;;;;;5112151;28;20489;-60
2023/03/13 08:32:04;;;;;;;8.32;2.33;;;12.20;99.90;;;;;;5110686;28;20542;-60
2023/03/13 08:34:29;;;;;;;9.68;2.38;;;12.40;99.90;;;;;;5112118;28;20069;-60
2023/03/13 08:36:56;;;;;;;6.78;2.20;;;12.30;99.90;;;;;;5112029;28;20039;-61
2023/03/13 08:39:22;;;;;;;6.93;2.67;;;12.60;99.90;;;;;;5111813;28;20112;-61
2023/03/13 08:41:48;;;;;;;4.38;2.08;;;13.00;99.90;;;;;;5112190;28;20065;-60
2023/03/13 08:44:16;;;;;;;3.58;1.90;;;13.30;99.90;;;;;;5111003;28;20031;-61
2023/03/13 08:46:44;;;;;;;5.10;1.70;;;13.40;99.90;;;;;;5111946;28;20043;-61
2023/03/13 08:49:11;;;;;;;8.90;1.67;;;13.70;99.90;;;;;;5112057;28;20047;-61
2023/03/13 08:51:39;;;;;;;6.55;1.40;;;14.00;99.90;;;;;;5112283;28;20040;-61
2023/03/13 08:54:05;;;;;;;8.35;1.90;;;14.10;99.90;;;;;;5111744;28;20115;-61
2023/03/13 08:56:33;;;;;;;5.90;1.92;;;14.10;99.90;;;;;;5112080;28;20032;-61
2023/03/13 08:59:01;;;;;;;5.93;1.50;;;14.30;99.90;;;;;;5111956;28;20119;-61
2023/03/13 09:01:30;;;;;;;4.73;1.20;;;14.30;99.90;;;;;;5110141;28;20086;-61
2023/03/13 09:03:55;;;;;;;4.20;1.83;;;14.40;99.90;;;;;;5111793;28;20040;-61
2023/03/13 09:06:22;;;;;;;4.85;1.27;;;14.50;99.90;;;;;;5111623;28;20063;-61
2023/03/13 09:08:47;;;;;;;3.17;1.23;;;14.60;99.90;;;;;;5111687;28;20044;-60
2023/03/13 09:11:18;;;;;;;4.70;1.63;;;14.70;99.90;;;;;;5111914;28;20042;-61
2023/03/13 09:13:47;;;;;;;5.75;1.63;;;14.40;99.90;;;;;;5111762;28;20035;-62
2023/03/13 09:16:18;;;;;;;6.40;1.50;;;14.10;99.90;;;;;;5110154;28;20055;-61
2023/03/13 09:18:44;;;;;;;5.90;1.83;;;14.00;99.90;;;;;;5111559;28;20487;-61
2023/03/13 09:24:51;;;;;;;8.60;2.08;;;13.70;99.90;;;;;;5111656;28;20585;-62
2023/03/13 09:27:17;;;;;;;8.07;1.85;;;13.60;99.90;;;;;;5111257;28;20130;-62
2023/03/13 09:29:42;;;;;;;8.80;2.55;;;13.50;99.90;;;;;;5115296;28;20047;-61
2023/03/13 09:32:10;;;;;;;11.13;2.70;;;13.50;99.90;;;;;;5115397;28;20078;-61
2023/03/13 09:34:35;;;;;;;11.05;2.65;;;13.40;99.90;;;;;;5115297;28;20086;-61
2023/03/13 09:37:01;;;;;;;10.35;2.85;;;13.30;99.90;;;;;;5115276;28;20063;-62
2023/03/13 09:39:27;;;;;;;13.07;3.20;;;13.20;99.90;;;;;;5115160;28;20036;-61
2023/03/13 09:42:14;;;;;;;9.40;3.28;;;13.20;99.90;;;;;;5113680;28;20081;-62
2023/03/13 09:45:01;;;;;;;11.63;2.38;;;13.10;99.90;;;;;;5105972;28;20086;-61
2023/03/13 09:47:38;;;;;;;7.95;2.40;;;13.10;99.90;;;;;;5094677;28;20044;-62
2023/03/13 09:50:14;;;;;;;12.63;2.80;;;13.20;99.90;;;;;;5094376;28;20043;-62
2023/03/13 09:52:40;;;;;;;11.85;2.65;;;13.20;99.90;;;;;;5094561;28;20047;-62
2023/03/13 09:55:30;;;;;;;19.38;3.50;;;13.30;99.90;;;;;;5094830;28;20074;-62
2023/03/13 09:58:02;;;;;;;11.57;3.17;;;13.30;99.90;;;;;;5094476;28;20130;-62
2023/03/13 10:00:45;;;;;;;10.15;2.50;;;13.30;99.90;;;;;;5094207;28;20490;-62
2023/03/13 10:03:16;;;;;;;9.23;2.30;;;13.40;99.90;;;;;;5094287;28;20048;-62
2023/03/13 10:05:51;;;;;;;14.98;2.72;;;13.50;99.90;;;;;;5094338;28;20119;-62
2023/03/13 10:08:30;;;;;;;12.40;2.63;;;13.60;99.90;;;;;;5094149;28;20032;-62
2023/03/13 10:11:17;;;;;;;10.35;2.40;;;13.90;99.90;;;;;;5094238;28;20043;-62
2023/03/13 10:14:02;;;;;;;14.00;3.38;;;14.00;99.90;;;;;;5094372;28;20397;-62
2023/03/13 10:16:52;;;;;;;11.90;2.33;;;14.20;99.90;;;;;;5094215;28;20114;-62
2023/03/13 10:19:31;;;;;;;7.77;2.57;;;14.30;99.90;;;;;;5093732;28;20040;-61
2023/03/13 10:22:01;;;;;;;15.77;3.22;;;14.50;99.90;;;;;;5103531;28;20040;-61
2023/03/13 10:24:38;;;;;;;12.80;3.05;;;14.70;99.90;;;;;;5114330;28;20035;-62
2023/03/13 10:27:04;;;;;;;14.05;3.15;;;14.70;99.90;;;;;;5114070;28;20052;-62
2023/03/13 10:29:30;;;;;;;16.60;3.15;;;14.80;99.90;;;;;;5114589;28;20243;-61
2023/03/13 10:32:05;;;;;;;15.50;3.50;;;14.70;99.90;;;;;;5114030;28;20043;-61
2023/03/13 10:34:52;;;;;;;13.23;3.30;;;14.90;99.90;;;;;;5114078;28;20504;-62
2023/03/13 10:37:30;;;;;;;14.30;4.32;;;14.80;99.90;;;;;;5113874;28;20032;-61
2023/03/13 10:40:23;;;;;;;16.42;3.28;;;14.80;99.90;;;;;;5113714;28;20054;-62
2023/03/13 10:42:52;;;;;;;18.52;3.80;;;14.80;99.90;;;;;;5113849;28;20550;-61
2023/03/13 10:49:02;;;;;;;18.17;3.70;;;14.70;99.90;;;;;;5113833;28;20104;-61
2023/03/13 10:51:40;;;;;;;24.27;4.53;;;14.70;99.90;;;;;;5105886;28;20044;-61
2023/03/13 10:54:24;;;;;;;18.50;3.65;;;14.60;99.90;;;;;;5113496;28;20040;-61
2023/03/13 10:57:06;;;;;;;19.95;3.47;;;14.50;99.90;;;;;;5113562;28;20200;-62
2023/03/13 10:59:32;;;;;;;15.60;3.70;;;14.50;99.90;;;;;;5113624;28;20044;-62
2023/03/13 11:01:59;;;;;;;18.00;4.80;;;14.50;99.90;;;;;;5113751;28;20440;-62
2023/03/13 11:04:33;;;;;;;16.05;3.70;;;14.50;99.90;;;;;;5113596;27;20084;-62
2023/03/13 11:07:15;;;;;;;17.08;3.92;;;14.60;99.90;;;;;;5113434;28;20039;-61
2023/03/13 11:09:40;;;;;;;17.60;3.50;;;14.50;99.90;;;;;;5113414;28;20039;-62
2023/03/13 11:12:19;;;;;;;17.70;4.25;;;14.50;99.90;;;;;;5113424;28;20617;-62
2023/03/13 11:14:44;;;;;;;16.98;3.38;;;14.50;99.90;;;;;;5106379;28;20036;-61
2023/03/13 11:17:18;;;;;;;20.45;3.80;;;14.50;99.90;;;;;;5092746;28;20086;-61
2023/03/13 11:20:22;;;;;;;13.88;3.35;;;14.70;99.90;;;;;;5092669;28;20040;-62
2023/03/13 11:23:08;;;;;;;14.38;3.25;;;14.70;99.90;;;;;;5091724;28;20093;-62
2023/03/13 11:25:51;;;;;;;19.65;3.05;;;14.60;99.90;;;;;;5092855;28;20054;-62
2023/03/13 11:28:31;;;;;;;12.95;3.17;;;14.60;99.90;;;;;;5092406;28;20056;-62
2023/03/13 11:31:21;;;;;;;16.92;2.92;;;14.80;99.90;;;;;;5092682;28;20055;-61
2023/03/13 11:33:56;;;;;;;12.63;2.92;;;14.90;99.90;;;;;;5092840;28;20042;-62
2023/03/13 11:36:29;;;;;;;14.90;3.35;;;14.70;99.90;;;;;;5092466;28;20115;-62
2023/03/13 11:39:05;;;;;;;11.55;2.55;;;14.70;99.90;;;;;;5091346;28;20064;-62
2023/03/13 11:41:36;;;;;;;12.02;2.55;;;14.60;99.90;;;;;;5092860;28;20052;-61
2023/03/13 11:44:17;;;;;;;13.23;2.30;;;14.50;99.90;;;;;;5092120;28;20040;-61
2023/03/13 11:47:02;;;;;;;12.80;2.60;;;14.60;99.90;;;;;;5092326;28;20043;-62
2023/03/13 11:49:31;;;;;;;11.25;2.45;;;14.60;99.90;;;;;;5010089;28;20499;-61
2023/03/13 11:52:20;;;;;;;15.13;2.92;;;14.60;99.90;;;;;;5009587;28;20523;-61
2023/03/13 11:55:15;;;;;;;18.55;2.72;;;14.70;99.90;;;;;;5010220;28;20597;-62
2023/03/13 11:57:51;;;;;;;11.18;2.40;;;14.70;99.90;;;;;;5010090;28;20041;-62
2023/03/13 12:00:27;;;;;;;13.88;3.08;;;14.70;99.90;;;;;;5009973;28;20399;-62
2023/03/13 12:03:10;;;;;;;10.95;3.10;;;14.60;99.90;;;;;;5010194;28;20054;-62
2023/03/13 12:05:53;;;;;;;15.82;2.90;;;14.70;99.90;;;;;;5009993;28;20042;-62
2023/03/13 12:08:29;;;;;;;10.52;2.40;;;14.70;99.90;;;;;;5009849;28;20042;-61
2023/03/13 12:10:55;;;;;;;14.45;2.78;;;14.90;99.90;;;;;;5010118;28;20049;-61
2023/03/13 12:13:27;;;;;;;12.32;3.33;;;14.90;99.90;;;;;;5010054;28;20053;-61
2023/03/13 12:15:58;;;;;;;13.50;3.22;;;15.10;99.90;;;;;;5009848;28;20118;-62
2023/03/13 12:18:35;;;;;;;15.05;3.28;;;15.00;99.90;;;;;;5009812;28;20384;-62
2023/03/13 12:21:12;;;;;;;18.58;3.63;;;15.00;99.90;;;;;;5009900;28;20045;-62
2023/03/13 12:23:58;;;;;;;13.95;3.63;;;15.10;99.90;;;;;;4993727;28;20120;-62
2023/03/13 12:26:44;;;;;;;15.50;3.63;;;15.20;99.90;;;;;;5045199;28;20406;-61
2023/03/13 12:29:38;;;;;;;14.73;3.63;;;15.20;99.90;;;;;;5091972;28;20032;-62
2023/03/13 12:32:37;;;;;;;14.75;3.63;;;15.10;99.90;;;;;;5090177;28;20048;-62
2023/03/13 12:35:27;;;;;;;24.27;4.15;;;15.10;99.90;;;;;;5091989;28;20048;-62
2023/03/13 12:38:11;;;;;;;18.35;4.28;;;15.30;99.90;;;;;;5091676;28;20486;-62
2023/03/13 12:41:13;;;;;;;15.73;3.47;;;15.40;99.90;;;;;;5091587;28;20093;-61
2023/03/13 12:43:42;;;;;;;20.70;4.28;;;15.50;99.90;;;;;;5091876;28;20477;-62
2023/03/13 12:46:34;;;;;;;17.77;4.10;;;15.70;99.90;;;;;;5091642;28;20036;-61
2023/03/13 12:49:36;;;;;;;15.23;3.58;;;15.90;99.90;;;;;;5091674;28;20077;-62
2023/03/13 12:52:29;;;;;;;14.38;4.10;;;15.90;99.90;;;;;;5091610;28;20051;-62
2023/03/13 12:54:54;;;;;;;15.18;4.30;;;16.00;99.90;;;;;;5091593;28;20040;-62
2023/03/13 12:57:58;;;;;;;16.90;3.60;;;15.90;99.90;;;;;;5091435;28;20052;-62
2023/03/13 13:00:27;;;;;;;18.33;3.83;;;16.00;99.90;;;;;;5009510;28;20050;-62
2023/03/13 13:03:11;;;;;;;16.02;4.18;;;16.00;99.90;;;;;;5010322;28;20045;-62
2023/03/13 13:05:37;;;;;;;16.52;3.50;;;16.20;99.90;;;;;;5013300;28;20053;-61
2023/03/13 13:08:03;;;;;;;17.25;3.75;;;16.10;99.90;;;;;;5013379;28;20518;-62
2023/03/13 13:10:29;;;;;;;16.02;3.67;;;16.00;99.90;;;;;;5013175;28;20113;-61